createdAt,value
2016-08-12T00:00:50.664Z,75.34
2016-08-12T00:01:51.330Z,75.71
2016-08-12T00:02:50.599Z,75.52
2016-08-12T00:03:51.266Z,75.52
2016-08-12T00:04:51.234Z,75.52
2016-08-12T00:05:51.199Z,75.62
2016-08-12T00:06:51.165Z,75.52
2016-08-12T00:07:51.134Z,76.1
2016-08-12T00:08:51.099Z,75.62
2016-08-12T00:09:51.066Z,75.52
2016-08-12T00:10:51.040Z,76.1
2016-08-12T00:11:51.004Z,75.91
2016-08-12T00:12:50.276Z,75.81
2016-08-12T00:13:50.237Z,75.81
2016-08-12T00:14:50.902Z,75.81
2016-08-12T00:15:50.867Z,75.52
2016-08-12T00:16:50.840Z,75.81
2016-08-12T00:18:50.772Z,75.81
2016-08-12T00:20:50.012Z,76
2016-08-12T00:21:50.673Z,76.39
2016-08-12T00:22:50.645Z,76.1
2016-08-12T00:23:50.608Z,76.48
2016-08-12T00:24:50.584Z,76.48
2016-08-12T00:25:50.547Z,77.06
2016-08-12T00:26:50.510Z,76.86
2016-08-12T00:27:49.781Z,76.67
2016-08-12T00:28:49.756Z,76.67
2016-08-12T00:29:50.413Z,77.15
2016-08-12T00:30:50.381Z,77.44
2016-08-12T00:31:50.349Z,77.34
2016-08-12T00:33:50.283Z,77.25
2016-08-12T00:34:50.251Z,77.34
2016-08-12T00:35:50.217Z,77.44
2016-08-12T00:36:49.490Z,77.44
2016-08-12T00:37:49.454Z,77.44
2016-08-12T00:38:50.118Z,77.53
2016-08-12T00:39:49.398Z,78.01
2016-08-12T00:40:50.058Z,77.59
2016-08-12T00:41:50.023Z,77.53
2016-08-12T00:42:49.992Z,77.5
2016-08-12T00:43:49.951Z,77.82
2016-08-12T00:44:49.924Z,77.3
2016-08-12T00:45:49.889Z,77.11
2016-08-12T00:46:49.856Z,77.11
2016-08-12T00:47:49.826Z,77.11
2016-08-12T00:48:49.098Z,77.34
2016-08-12T00:49:49.062Z,77.3
2016-08-12T00:50:49.729Z,77.25
2016-08-12T00:51:49.694Z,77.01
2016-08-12T00:52:49.662Z,76.54
2016-08-12T00:53:49.626Z,76.86
2016-08-12T00:54:49.593Z,77.01
2016-08-12T00:55:48.867Z,76.73
2016-08-12T00:56:49.530Z,76.64
2016-08-12T00:57:49.499Z,76.92
2016-08-12T00:58:49.461Z,77.4
2016-08-12T00:59:49.431Z,77.01
2016-08-12T01:00:49.397Z,77.11
2016-08-12T01:01:49.365Z,77.4
2016-08-12T01:02:49.350Z,77.3
2016-08-12T01:03:49.304Z,77.34
2016-08-12T01:04:49.267Z,77.63
2016-08-12T01:05:48.538Z,77.72
2016-08-12T01:06:49.204Z,77.63
2016-08-12T01:07:48.481Z,77.59
2016-08-12T01:08:48.437Z,77.5
2016-08-12T01:09:49.106Z,77.63
2016-08-12T01:10:49.069Z,77.44
2016-08-12T01:11:48.337Z,77.59
2016-08-12T01:12:49.011Z,77.59
2016-08-12T01:13:48.971Z,77.53
2016-08-12T01:14:48.936Z,77.5
2016-08-12T01:15:48.212Z,77.5
2016-08-12T01:16:48.871Z,77.59
2016-08-12T01:17:48.144Z,77.3
2016-08-12T01:18:48.111Z,77.21
2016-08-12T01:19:48.773Z,77.01
2016-08-12T01:20:48.739Z,77.21
2016-08-12T01:21:48.708Z,76.82
2016-08-12T01:22:47.980Z,76.57
2016-08-12T01:23:47.950Z,76.64
2016-08-12T01:24:48.612Z,76.92
2016-08-12T01:25:48.578Z,76.77
2016-08-12T01:26:48.557Z,76.54
2016-08-12T01:27:48.513Z,76.45
2016-08-12T01:28:48.482Z,76.25
2016-08-12T01:29:47.762Z,76
2016-08-12T01:30:47.718Z,76
2016-08-12T01:31:47.686Z,76.1
2016-08-12T01:32:47.655Z,76.25
2016-08-12T01:33:48.316Z,75.68
2016-08-12T01:34:48.281Z,76.16
2016-08-12T01:35:48.252Z,76.16
2016-08-12T01:36:48.221Z,76.06
2016-08-12T01:37:48.195Z,76.1
2016-08-12T01:38:48.151Z,75.87
2016-08-12T01:39:48.126Z,76.16
2016-08-12T01:40:48.083Z,75.81
2016-08-12T01:41:47.360Z,75.59
2016-08-12T01:42:48.022Z,75.78
2016-08-12T01:43:47.989Z,76.29
2016-08-12T01:44:47.261Z,76.77
2016-08-12T01:45:47.226Z,77.4
2016-08-12T01:46:47.891Z,78.64
2016-08-12T01:47:47.858Z,78.74
2016-08-12T01:48:47.126Z,79.31
2016-08-12T01:49:47.094Z,79.73
2016-08-12T01:50:47.761Z,79.88
2016-08-12T01:51:47.724Z,80.21
2016-08-12T01:52:46.999Z,80.36
2016-08-12T01:53:47.658Z,80.27
2016-08-12T01:54:47.625Z,80.74
2016-08-12T01:55:47.601Z,80.93
2016-08-12T01:56:47.563Z,80.46
2016-08-12T01:57:47.529Z,80.65
2016-08-12T01:58:47.496Z,80.65
2016-08-12T01:59:47.463Z,80.84
2016-08-12T02:00:47.434Z,80.46
2016-08-12T02:01:47.397Z,80.93
2016-08-12T02:02:47.363Z,80.93
2016-08-12T02:03:46.636Z,81.03
2016-08-12T02:04:47.298Z,81.13
2016-08-12T02:05:46.569Z,81.41
2016-08-12T02:06:47.242Z,81.6
2016-08-12T02:07:47.201Z,81.99
2016-08-12T02:08:47.167Z,81.89
2016-08-12T02:09:47.143Z,82.28
2016-08-12T02:10:47.098Z,82.46
2016-08-12T02:11:47.071Z,82.56
2016-08-12T02:12:47.036Z,82.65
2016-08-12T02:13:47.001Z,83.13
2016-08-12T02:14:46.969Z,83.33
2016-08-12T02:15:46.937Z,83.23
2016-08-12T02:16:46.207Z,82.84
2016-08-12T02:17:46.873Z,82.75
2016-08-12T02:18:46.833Z,82.84
2016-08-12T02:19:46.108Z,83.13
2016-08-12T02:20:46.771Z,82.94
2016-08-12T02:21:46.739Z,83.33
2016-08-12T02:22:46.010Z,82.46
2016-08-12T02:23:45.980Z,82.84
2016-08-12T02:24:46.639Z,82.75
2016-08-12T02:25:46.603Z,83.04
2016-08-12T02:26:45.877Z,83.23
2016-08-12T02:27:46.539Z,82.75
2016-08-12T02:28:45.811Z,82.46
2016-08-12T02:29:46.474Z,83.04
2016-08-12T02:30:45.746Z,82.75
2016-08-12T02:31:45.710Z,83.13
2016-08-12T02:32:46.376Z,82.84
2016-08-12T02:33:46.343Z,81.99
2016-08-12T02:34:46.312Z,82.46
2016-08-12T02:35:46.277Z,81.89
2016-08-12T02:36:45.549Z,80.93
2016-08-12T02:37:45.516Z,80.74
2016-08-12T02:38:46.178Z,80.36
2016-08-12T02:39:46.144Z,80.17
2016-08-12T02:40:46.110Z,79.41
2016-08-12T02:41:46.082Z,78.58
2016-08-12T02:42:46.045Z,77.69
2016-08-12T02:43:46.015Z,77.34
2016-08-12T02:44:45.985Z,76.64
2016-08-12T02:45:45.957Z,76.77
2016-08-12T02:46:45.914Z,76.1
2016-08-12T02:47:45.881Z,75.96
2016-08-12T02:48:45.850Z,75.49
2016-08-12T02:49:45.120Z,75.43
2016-08-12T02:50:45.790Z,75.2
2016-08-12T02:51:45.749Z,75.49
2016-08-12T02:52:45.719Z,75.1
2016-08-12T02:53:45.681Z,74.85
2016-08-12T02:54:45.650Z,74.66
2016-08-12T02:55:45.620Z,74.48
2016-08-12T02:56:44.886Z,74.44
2016-08-12T02:57:45.551Z,74.09
2016-08-12T02:58:45.526Z,73.67
2016-08-12T02:59:45.487Z,73.8
2016-08-12T03:00:45.456Z,73.61
2016-08-12T03:01:44.726Z,73.29
2016-08-12T03:02:45.389Z,73.48
2016-08-12T03:03:45.357Z,72.81
2016-08-12T03:04:45.319Z,73.1
2016-08-12T03:05:45.290Z,73.19
2016-08-12T03:06:45.253Z,72.91
2016-08-12T03:07:45.226Z,72.75
2016-08-12T03:08:45.191Z,73.14
2016-08-12T03:09:45.157Z,73.19
2016-08-12T03:10:45.133Z,72.81
2016-08-12T03:11:45.094Z,73.29
2016-08-12T03:12:45.059Z,73.39
2016-08-12T03:13:45.023Z,73.58
2016-08-12T03:14:44.993Z,73.58
2016-08-12T03:15:44.265Z,73.86
2016-08-12T03:16:44.927Z,74.05
2016-08-12T03:17:44.896Z,74.44
2016-08-12T03:18:44.402Z,74.44
2016-08-12T03:19:44.828Z,74.53
2016-08-12T03:20:44.796Z,74.73
2016-08-12T03:21:44.766Z,75.2
2016-08-12T03:22:44.732Z,75.39
2016-08-12T03:23:44.694Z,75.59
2016-08-12T03:24:44.666Z,76.06
2016-08-12T03:25:44.635Z,76.06
2016-08-12T03:26:44.600Z,76.06
2016-08-12T03:27:43.868Z,76.35
2016-08-12T03:28:43.851Z,76.64
2016-08-12T03:29:44.514Z,76.73
2016-08-12T03:30:44.468Z,77.01
2016-08-12T03:31:44.434Z,77.4
2016-08-12T03:32:43.704Z,77.21
2016-08-12T03:33:43.670Z,77.5
2016-08-12T03:34:44.346Z,77.87
2016-08-12T03:35:44.303Z,77.87
2016-08-12T03:36:44.269Z,77.78
2016-08-12T03:37:44.236Z,77.59
2016-08-12T03:38:44.204Z,77.69
2016-08-12T03:39:44.168Z,77.4
2016-08-12T03:40:44.138Z,77.5
2016-08-12T03:41:44.105Z,77.4
2016-08-12T03:42:43.375Z,77.4
2016-08-12T03:43:44.037Z,77.21
2016-08-12T03:44:44.006Z,77.3
2016-08-12T03:45:43.970Z,77.59
2016-08-12T03:46:43.943Z,77.59
2016-08-12T03:47:43.910Z,77.59
2016-08-12T03:48:43.871Z,77.4
2016-08-12T03:49:43.839Z,77.59
2016-08-12T03:50:43.813Z,77.59
2016-08-12T03:51:43.774Z,77.3
2016-08-12T03:52:43.739Z,77.3
2016-08-12T03:53:43.708Z,77.3
2016-08-12T03:54:43.678Z,77.3
2016-08-12T03:55:43.639Z,76.54
2016-08-12T03:56:43.609Z,77.11
2016-08-12T03:57:43.582Z,76.54
2016-08-12T03:58:43.544Z,76.16
2016-08-12T03:59:43.510Z,75.68
2016-08-12T04:00:43.480Z,75.39
2016-08-12T04:01:43.445Z,75.49
2016-08-12T04:02:43.415Z,74.82
2016-08-12T04:03:42.681Z,75.1
2016-08-12T04:04:43.347Z,74.73
2016-08-12T04:05:43.312Z,74.53
2016-08-12T04:06:43.279Z,74.44
2016-08-12T04:07:43.247Z,74.63
2016-08-12T04:08:43.215Z,73.96
2016-08-12T04:09:43.182Z,73.96
2016-08-12T04:10:43.147Z,73.67
2016-08-12T04:11:43.119Z,73.71
2016-08-12T04:12:43.078Z,73.48
2016-08-12T04:13:43.051Z,73.1
2016-08-12T04:14:43.011Z,73.61
2016-08-12T04:15:42.988Z,73.48
2016-08-12T04:16:42.948Z,73.04
2016-08-12T04:17:42.915Z,73.33
2016-08-12T04:18:42.883Z,73.04
2016-08-12T04:19:42.859Z,73.14
2016-08-12T04:20:42.819Z,72.85
2016-08-12T04:21:42.787Z,72.94
2016-08-12T04:22:42.751Z,72.94
2016-08-12T04:23:42.718Z,73.04
2016-08-12T04:24:42.684Z,72.94
2016-08-12T04:25:42.652Z,72.94
2016-08-12T04:26:42.627Z,72.94
2016-08-12T04:27:42.585Z,73.23
2016-08-12T04:28:42.550Z,72.94
2016-08-12T04:29:42.520Z,73.14
2016-08-12T04:30:42.489Z,72.47
2016-08-12T04:31:42.462Z,72.37
2016-08-12T04:32:42.422Z,72.56
2016-08-12T04:33:42.387Z,72.08
2016-08-12T04:34:42.355Z,72.18
2016-08-12T04:35:42.327Z,72.47
2016-08-12T04:36:42.294Z,72.47
2016-08-12T04:37:42.259Z,72.47
2016-08-12T04:38:42.227Z,72.37
2016-08-12T04:39:41.499Z,72.47
2016-08-12T04:40:41.466Z,72.47
2016-08-12T04:41:42.130Z,71.89
2016-08-12T04:42:42.099Z,71.8
2016-08-12T04:43:41.362Z,71.32
2016-08-12T04:44:42.029Z,71.42
2016-08-12T04:45:42.001Z,71.8
2016-08-12T04:46:41.962Z,71.61
2016-08-12T04:47:41.930Z,71.03
2016-08-12T04:48:41.895Z,70.84
2016-08-12T04:49:41.863Z,71.13
2016-08-12T04:50:41.833Z,71.03
2016-08-12T04:51:41.796Z,71.13
2016-08-12T04:52:41.769Z,70.94
2016-08-12T04:53:41.734Z,71.03
2016-08-12T04:54:41.699Z,70.75
2016-08-12T04:55:41.675Z,71.03
2016-08-12T04:56:41.635Z,70.46
2016-08-12T04:57:41.601Z,70.27
2016-08-12T04:58:41.569Z,70.36
2016-08-12T04:59:41.539Z,69.98
2016-08-12T05:00:41.513Z,69.98
2016-08-12T05:01:41.476Z,70.36
2016-08-12T05:02:40.743Z,70.27
2016-08-12T05:03:41.408Z,69.89
2016-08-12T05:04:41.383Z,69.79
2016-08-12T05:05:40.643Z,69.89
2016-08-12T05:06:41.328Z,70.07
2016-08-12T05:07:40.579Z,69.6
2016-08-12T05:08:40.549Z,70.01
2016-08-12T05:09:41.210Z,69.79
2016-08-12T05:10:41.187Z,69.92
2016-08-12T05:11:40.464Z,70.11
2016-08-12T05:12:41.118Z,69.35
2016-08-12T05:13:40.382Z,69.6
2016-08-12T05:14:41.053Z,69.41
2016-08-12T05:15:41.018Z,69.35
2016-08-12T05:16:40.289Z,69.35
2016-08-12T05:17:40.950Z,69.54
2016-08-12T05:18:40.915Z,68.96
2016-08-12T05:19:40.885Z,69.15
2016-08-12T05:20:40.849Z,69.15
2016-08-12T05:21:40.130Z,68.68
2016-08-12T05:22:40.787Z,68.39
2016-08-12T05:23:40.761Z,68.87
2016-08-12T05:24:40.028Z,68.68
2016-08-12T05:25:40.692Z,68.87
2016-08-12T05:26:40.039Z,68.68
2016-08-12T05:27:40.633Z,68.87
2016-08-12T05:28:40.592Z,68.87
2016-08-12T05:29:40.567Z,68.68
2016-08-12T05:30:40.532Z,68.39
2016-08-12T05:31:40.508Z,68.68
2016-08-12T05:32:40.462Z,68.87
2016-08-12T05:33:40.437Z,68.68
2016-08-12T05:34:40.402Z,69.15
2016-08-12T05:35:40.369Z,69.35
2016-08-12T05:36:40.330Z,69.82
2016-08-12T05:37:40.302Z,69.73
2016-08-12T05:38:39.572Z,69.54
2016-08-12T05:39:40.231Z,69.73
2016-08-12T05:40:40.198Z,70.01
2016-08-12T05:41:40.186Z,69.92
2016-08-12T05:42:40.136Z,70.01
2016-08-12T05:43:40.104Z,69.73
2016-08-12T05:44:39.377Z,69.92
2016-08-12T05:45:40.052Z,70.21
2016-08-12T05:46:40.005Z,69.64
2016-08-12T05:47:39.978Z,69.92
2016-08-12T05:48:39.944Z,70.3
2016-08-12T05:49:39.211Z,70.4
2016-08-12T05:50:39.876Z,70.4
2016-08-12T05:51:39.845Z,70.4
2016-08-12T05:52:39.811Z,70.4
2016-08-12T05:53:39.778Z,70.59
2016-08-12T05:54:39.747Z,70.59
2016-08-12T05:55:39.718Z,70.87
2016-08-12T05:56:39.679Z,70.87
2016-08-12T05:57:39.649Z,70.68
2016-08-12T05:58:39.615Z,70.97
2016-08-12T05:59:39.579Z,70.97
2016-08-12T06:00:38.854Z,71.07
2016-08-12T06:01:39.518Z,70.87
2016-08-12T06:02:39.482Z,71.55
2016-08-12T06:03:39.451Z,70.97
2016-08-12T06:04:39.418Z,71.26
2016-08-12T06:05:39.387Z,70.97
2016-08-12T06:06:39.355Z,71.07
2016-08-12T06:07:39.322Z,71.45
2016-08-12T06:08:39.288Z,71.26
2016-08-12T06:09:39.258Z,71.64
2016-08-12T06:10:39.233Z,71.45
2016-08-12T06:11:39.192Z,71.93
2016-08-12T06:12:39.167Z,72.31
2016-08-12T06:13:39.129Z,73.08
2016-08-12T06:14:39.092Z,73.55
2016-08-12T06:15:39.058Z,73.75
2016-08-12T06:16:39.028Z,74.13
2016-08-12T06:17:38.993Z,74.61
2016-08-12T06:18:38.964Z,74.99
2016-08-12T06:19:38.235Z,75.47
2016-08-12T06:20:38.897Z,75.37
2016-08-12T06:21:38.174Z,75.85
2016-08-12T06:22:38.142Z,76.23
2016-08-12T06:23:38.800Z,76.23
2016-08-12T06:24:38.767Z,76.42
2016-08-12T06:25:38.742Z,76.9
2016-08-12T06:26:38.705Z,76.9
2016-08-12T06:27:38.672Z,77.38
2016-08-12T06:28:38.638Z,78.14
2016-08-12T06:29:38.615Z,78.24
2016-08-12T06:30:38.574Z,77.95
2016-08-12T06:31:38.545Z,77.95
2016-08-12T06:32:38.510Z,78.63
2016-08-12T06:33:37.775Z,78.63
2016-08-12T06:34:38.444Z,78.72
2016-08-12T06:35:38.410Z,79.1
2016-08-12T06:36:38.378Z,79.1
2016-08-12T06:37:37.651Z,79.49
2016-08-12T06:38:38.317Z,79.2
2016-08-12T06:39:38.279Z,79.39
2016-08-12T06:40:38.249Z,79.39
2016-08-12T06:41:38.215Z,79.87
2016-08-12T06:42:38.181Z,79.58
2016-08-12T06:43:38.152Z,79.58
2016-08-12T06:44:38.121Z,79.77
2016-08-12T06:45:38.102Z,79.87
2016-08-12T06:46:38.062Z,79.77
2016-08-12T06:47:38.025Z,79.77
2016-08-12T06:48:38.004Z,79.58
2016-08-12T06:49:37.964Z,79.49
2016-08-12T06:50:37.231Z,79.29
2016-08-12T06:51:37.907Z,79.49
2016-08-12T06:52:37.862Z,79.05
2016-08-12T06:53:37.827Z,79.33
2016-08-12T06:54:37.099Z,79.24
2016-08-12T06:55:37.761Z,78.76
2016-08-12T06:56:37.733Z,78.66
2016-08-12T06:57:37.005Z,78.47
2016-08-12T06:58:37.667Z,78.28
2016-08-12T06:59:37.639Z,78.47
2016-08-12T07:00:37.605Z,78.38
2016-08-12T07:01:37.574Z,78.86
2016-08-12T07:02:37.538Z,78.86
2016-08-12T07:03:37.509Z,78.47
2016-08-12T07:04:37.472Z,79.05
2016-08-12T07:05:36.756Z,78.86
2016-08-12T07:06:37.413Z,79.14
2016-08-12T07:07:37.386Z,78.47
2016-08-12T07:08:37.359Z,78.86
2016-08-12T07:09:37.317Z,78.47
2016-08-12T07:10:37.288Z,78.47
2016-08-12T07:11:37.254Z,78.57
2016-08-12T07:12:37.221Z,77.9
2016-08-12T07:13:37.189Z,78.09
2016-08-12T07:14:37.157Z,77.7
2016-08-12T07:15:36.429Z,77.99
2016-08-12T07:16:37.091Z,78.19
2016-08-12T07:17:37.067Z,77.9
2016-08-12T07:18:37.027Z,78.09
2016-08-12T07:19:36.995Z,78.19
2016-08-12T07:20:36.963Z,77.99
2016-08-12T07:21:36.941Z,78.66
2016-08-12T07:22:36.203Z,78.47
2016-08-12T07:23:36.867Z,78.28
2016-08-12T07:24:36.837Z,78.28
2016-08-12T07:25:36.813Z,78.28
2016-08-12T07:26:36.776Z,78.76
2016-08-12T07:27:36.742Z,78.76
2016-08-12T07:28:36.710Z,79.05
2016-08-12T07:29:36.683Z,79.14
2016-08-12T07:30:36.652Z,79.05
2016-08-12T07:31:36.619Z,78.47
2016-08-12T07:32:35.884Z,78.47
2016-08-12T07:33:36.549Z,78.47
2016-08-12T07:34:36.525Z,78.09
2016-08-12T07:35:36.485Z,78.66
2016-08-12T07:36:36.457Z,77.99
2016-08-12T07:37:36.432Z,78.38
2016-08-12T07:38:35.694Z,78.47
2016-08-12T07:39:35.661Z,78.47
2016-08-12T07:40:36.326Z,78.47
2016-08-12T07:41:36.294Z,77.9
2016-08-12T07:42:35.566Z,78.19
2016-08-12T07:43:35.535Z,78.09
2016-08-12T07:44:36.198Z,78.19
2016-08-12T07:45:35.475Z,77.9
2016-08-12T07:46:36.132Z,77.8
2016-08-12T07:47:36.101Z,78.57
2016-08-12T07:48:36.068Z,78.57
2016-08-12T07:49:35.575Z,78.47
2016-08-12T07:50:36.004Z,78.47
2016-08-12T07:51:35.975Z,78.09
2016-08-12T07:52:35.945Z,77.8
2016-08-12T07:53:35.912Z,77.7
2016-08-12T07:54:35.877Z,77.55
2016-08-12T07:55:35.846Z,77.13
2016-08-12T07:56:35.827Z,76.69
2016-08-12T07:57:35.780Z,76.02
2016-08-12T07:58:35.755Z,75.73
2016-08-12T07:59:35.718Z,75.68
2016-08-12T08:00:35.691Z,75.01
2016-08-12T08:01:34.960Z,74.43
2016-08-12T08:02:35.627Z,74.62
2016-08-12T08:03:34.897Z,74.15
2016-08-12T08:05:35.528Z,74.33
2016-08-12T08:06:35.506Z,74.05
2016-08-12T08:07:35.468Z,72.99
2016-08-12T08:08:35.436Z,73.57
2016-08-12T08:09:34.710Z,72.61
2016-08-12T08:10:34.681Z,72.61
2016-08-12T08:11:35.342Z,72.61
2016-08-12T08:12:35.309Z,72.13
2016-08-12T08:13:35.283Z,71.84
2016-08-12T08:14:35.249Z,71.31
2016-08-12T08:15:35.216Z,71.02
2016-08-12T08:16:34.492Z,71.11
2016-08-12T08:17:35.154Z,70.15
2016-08-12T08:18:35.121Z,70.15
2016-08-12T08:20:34.582Z,70.15
2016-08-12T08:21:35.036Z,70.54
2016-08-12T08:22:35.012Z,70.06
2016-08-12T08:23:34.271Z,70.48
2016-08-12T08:24:34.940Z,69.62
2016-08-12T08:25:34.213Z,69.04
2016-08-12T08:26:34.883Z,68.37
2016-08-12T08:27:34.851Z,68.95
2016-08-12T08:28:34.816Z,68.66
2016-08-12T08:29:34.785Z,68.56
2016-08-12T08:30:34.755Z,68.85
2016-08-12T08:31:34.722Z,68.75
2016-08-12T08:32:34.697Z,68.85
2016-08-12T08:33:34.671Z,68.46
2016-08-12T08:34:34.637Z,67.22
2016-08-12T08:35:34.604Z,67.32
2016-08-12T08:36:34.573Z,67.02
2016-08-12T08:37:34.545Z,66.86
2016-08-12T08:38:34.514Z,66.86
2016-08-12T08:39:34.482Z,66.86
2016-08-12T08:40:34.451Z,65.81
2016-08-12T08:41:33.723Z,65.17
2016-08-12T08:42:34.398Z,65.17
2016-08-12T08:43:34.364Z,64.98
2016-08-12T08:44:33.635Z,64.89
2016-08-12T08:45:34.303Z,65.36
2016-08-12T08:46:34.279Z,65.36
2016-08-12T08:47:34.242Z,65.08
2016-08-12T08:48:34.211Z,64.31
2016-08-12T08:49:34.191Z,64.31
2016-08-12T08:50:34.156Z,64.15
2016-08-12T08:51:34.127Z,64.63
2016-08-12T08:52:34.097Z,64.15
2016-08-12T08:53:33.374Z,64.53
2016-08-12T08:54:34.038Z,63.76
2016-08-12T08:55:34.012Z,63.76
2016-08-12T08:56:33.979Z,64.15
2016-08-12T08:57:33.952Z,63.76
2016-08-12T08:58:33.922Z,63.22
2016-08-12T08:59:33.888Z,63.41
2016-08-12T09:00:33.860Z,62.45
2016-08-12T09:01:33.838Z,62.35
2016-08-12T09:02:33.806Z,61.97
2016-08-12T09:03:33.775Z,62.26
2016-08-12T09:04:33.747Z,61.97
2016-08-12T09:05:33.718Z,61.01
2016-08-12T09:06:33.689Z,60.91
2016-08-12T09:07:33.656Z,60.82
2016-08-12T09:08:33.636Z,60.85
2016-08-12T09:09:33.609Z,60.46
2016-08-12T09:10:33.574Z,61.3
2016-08-12T09:11:33.546Z,61.11
2016-08-12T09:12:33.519Z,61.11
2016-08-12T09:13:33.486Z,61.46
2016-08-12T09:14:33.457Z,62.04
2016-08-12T09:15:33.430Z,62.32
2016-08-12T09:16:33.398Z,62.52
2016-08-12T09:17:33.367Z,62.42
2016-08-12T09:18:33.344Z,63.48
2016-08-12T09:19:33.312Z,63.48
2016-08-12T09:20:33.291Z,63.28
2016-08-12T09:21:33.254Z,63.16
2016-08-12T09:22:33.224Z,63.19
2016-08-12T09:23:33.195Z,62.9
2016-08-12T09:24:33.166Z,62.99
2016-08-12T09:25:33.137Z,63.19
2016-08-12T09:26:33.108Z,63.41
2016-08-12T09:27:32.380Z,62.74
2016-08-12T09:28:33.047Z,61.58
2016-08-12T09:29:33.032Z,62.07
2016-08-12T09:30:32.342Z,61.58
2016-08-12T09:31:32.959Z,61.11
2016-08-12T09:32:32.233Z,60.82
2016-08-12T09:33:32.901Z,61.11
2016-08-12T09:34:32.872Z,60.91
2016-08-12T09:35:32.144Z,61.04
2016-08-12T09:36:32.812Z,60.46
2016-08-12T09:37:32.086Z,59.5
2016-08-12T09:38:32.759Z,59.41
2016-08-12T09:39:32.729Z,58.83
2016-08-12T09:40:32.700Z,58.18
2016-08-12T09:41:32.668Z,58.09
2016-08-12T09:42:32.639Z,58.28
2016-08-12T09:43:32.613Z,58.28
2016-08-12T09:44:31.884Z,58.57
2016-08-12T09:45:32.559Z,57.99
2016-08-12T09:46:32.522Z,57.8
2016-08-12T09:47:31.798Z,57.8
2016-08-12T09:48:32.467Z,57.32
2016-08-12T09:49:32.437Z,56.55
2016-08-12T09:50:31.714Z,56.74
2016-08-12T09:51:32.377Z,57.03
2016-08-12T09:52:32.353Z,57.48
2016-08-12T09:53:32.323Z,57.22
2016-08-12T09:54:32.303Z,56.65
2016-08-12T09:55:32.266Z,56.26
2016-08-12T09:56:31.539Z,56.48
2016-08-12T09:57:32.209Z,56.2
2016-08-12T09:58:32.203Z,55.74
2016-08-12T09:59:32.154Z,55.07
2016-08-12T10:00:32.125Z,54.97
2016-08-12T10:01:32.096Z,54.87
2016-08-12T10:02:32.078Z,54.58
2016-08-12T10:03:31.344Z,55.16
2016-08-12T10:04:32.006Z,53.81
2016-08-12T10:05:31.978Z,53.91
2016-08-12T10:06:31.952Z,55.07
2016-08-12T10:07:31.923Z,54.94
2016-08-12T10:08:31.895Z,55.81
2016-08-12T10:09:31.172Z,55.23
2016-08-12T10:10:31.848Z,56.48
2016-08-12T10:11:31.809Z,56.55
2016-08-12T10:12:31.779Z,55.9
2016-08-12T10:13:31.764Z,56.36
2016-08-12T10:14:31.726Z,56.65
2016-08-12T10:15:30.999Z,56.74
2016-08-12T10:16:31.680Z,56.55
2016-08-12T10:17:31.638Z,56.74
2016-08-12T10:18:31.610Z,57.42
2016-08-12T10:19:31.583Z,56.74
2016-08-12T10:20:31.555Z,56.93
2016-08-12T10:21:31.523Z,56.93
2016-08-12T10:22:31.498Z,56.65
2016-08-12T10:23:31.475Z,56.93
2016-08-12T10:24:31.440Z,56.74
2016-08-12T10:25:31.412Z,56.74
2016-08-12T10:26:31.380Z,56.65
2016-08-12T10:27:31.357Z,56.16
2016-08-12T10:28:31.325Z,56.07
2016-08-12T10:29:31.293Z,55.33
2016-08-12T10:30:31.276Z,54.75
2016-08-12T10:31:31.237Z,54.85
2016-08-12T10:32:31.209Z,54.17
2016-08-12T10:33:31.180Z,54.85
2016-08-12T10:34:31.151Z,54.94
2016-08-12T10:35:31.124Z,54.65
2016-08-12T10:36:31.094Z,54.56
2016-08-12T10:37:30.368Z,54.75
2016-08-12T10:38:31.038Z,54.3
2016-08-12T10:39:31.007Z,53.84
2016-08-12T10:40:30.985Z,53.17
2016-08-12T10:41:30.267Z,52.23
2016-08-12T10:42:30.927Z,50.98
2016-08-12T10:43:30.899Z,50.98
2016-08-12T10:44:30.180Z,51.17
2016-08-12T10:45:30.842Z,51.26
2016-08-12T10:46:30.814Z,50.71
2016-08-12T10:47:30.090Z,50.62
2016-08-12T10:48:30.759Z,50.06
2016-08-12T10:49:30.731Z,50.26
2016-08-12T10:50:30.242Z,50.06
2016-08-12T10:51:30.679Z,50.06
2016-08-12T10:52:30.652Z,50.45
2016-08-12T10:53:30.628Z,50.45
2016-08-12T10:54:30.594Z,50.35
2016-08-12T10:55:30.568Z,50.45
2016-08-12T10:56:30.538Z,49.96
2016-08-12T10:57:30.515Z,49.1
2016-08-12T10:58:30.483Z,48.64
2016-08-12T10:59:30.458Z,47.87
2016-08-12T11:00:30.430Z,47.99
2016-08-12T11:01:30.405Z,47.41
2016-08-12T11:02:30.382Z,45.86
2016-08-12T11:03:30.358Z,45.69
2016-08-12T11:04:30.322Z,44.82
2016-08-12T11:05:29.833Z,43.41
2016-08-12T11:06:30.269Z,43.17
2016-08-12T11:07:30.243Z,42.49
2016-08-12T11:08:30.219Z,42.03
2016-08-12T11:09:30.190Z,40.67
2016-08-12T11:10:30.164Z,40.38
2016-08-12T11:11:30.138Z,39.8
2016-08-12T11:12:30.119Z,40
2016-08-12T11:13:30.087Z,39.11
2016-08-12T11:14:30.057Z,39.69
2016-08-12T11:15:30.036Z,40.34
2016-08-12T11:16:30.015Z,40.83
2016-08-12T11:17:29.287Z,40.63
2016-08-12T11:18:29.959Z,40.44
2016-08-12T11:19:29.937Z,40.73
2016-08-12T11:20:29.447Z,40.84
2016-08-12T11:21:29.881Z,40.56
2016-08-12T11:22:29.858Z,40.65
2016-08-12T11:23:29.841Z,40.67
2016-08-12T11:24:29.806Z,40.38
2016-08-12T11:25:29.778Z,40.26
2016-08-12T11:26:29.755Z,40.09
2016-08-12T11:27:29.735Z,39.32
2016-08-12T11:28:29.703Z,38.93
2016-08-12T11:29:29.682Z,39.59
2016-08-12T11:30:29.651Z,39.09
2016-08-12T11:31:29.631Z,39.28
2016-08-12T11:32:29.603Z,39.76
2016-08-12T11:33:28.883Z,39.95
2016-08-12T11:34:29.557Z,39.86
2016-08-12T11:35:28.830Z,39.67
2016-08-12T11:36:29.498Z,39.95
2016-08-12T11:37:28.780Z,39.28
2016-08-12T11:38:29.454Z,39.57
2016-08-12T11:39:28.748Z,39.55
2016-08-12T11:40:29.404Z,40.23
2016-08-12T11:41:29.401Z,40.32
2016-08-12T11:42:29.351Z,39.86
2016-08-12T11:43:29.326Z,41.21
2016-08-12T11:44:29.298Z,40.46
2016-08-12T11:45:29.282Z,40.36
2016-08-12T11:46:29.250Z,38.93
2016-08-12T11:47:29.224Z,39.41
2016-08-12T11:48:28.503Z,38.27
2016-08-12T11:49:29.174Z,37.71
2016-08-12T11:50:28.452Z,37.51
2016-08-12T11:51:29.120Z,37.32
2016-08-12T11:52:29.100Z,36.83
2016-08-12T11:53:29.088Z,37.15
2016-08-12T11:54:29.054Z,36.66
2016-08-12T11:55:28.339Z,36.56
2016-08-12T11:56:29.003Z,36.95
2016-08-12T11:57:28.974Z,36.56
2016-08-12T11:58:28.250Z,35.78
2016-08-12T11:59:28.927Z,35.21
2016-08-12T12:00:28.899Z,34.72
2016-08-12T12:01:28.881Z,35.28
2016-08-12T12:02:28.155Z,35.85
2016-08-12T12:03:28.129Z,36.72
2016-08-12T12:04:28.800Z,36.72
2016-08-12T12:05:28.775Z,37.01
2016-08-12T12:06:28.052Z,36.72
2016-08-12T12:07:28.028Z,36.62
2016-08-12T12:08:28.701Z,36.43
2016-08-12T12:09:28.672Z,36.24
2016-08-12T12:10:28.650Z,36.51
2016-08-12T12:11:27.927Z,36.99
2016-08-12T12:12:28.606Z,37.55
2016-08-12T12:13:28.583Z,38.5
2016-08-12T12:14:28.549Z,38.41
2016-08-12T12:15:28.522Z,39.26
2016-08-12T12:16:27.802Z,40.03
2016-08-12T12:17:28.477Z,39.94
2016-08-12T12:18:28.447Z,40.13
2016-08-12T12:19:28.434Z,40.03
2016-08-12T12:20:28.397Z,40.59
2016-08-12T12:21:28.373Z,40.3
2016-08-12T12:22:28.347Z,40.5
2016-08-12T12:23:28.327Z,40.59
2016-08-12T12:24:27.595Z,40.81
2016-08-12T12:25:28.268Z,40.4
2016-08-12T12:26:28.243Z,40.59
2016-08-12T12:27:28.216Z,40.98
2016-08-12T12:28:28.192Z,41.17
2016-08-12T12:29:28.173Z,41.66
2016-08-12T12:30:27.444Z,41.73
2016-08-12T12:31:28.114Z,42.31
2016-08-12T12:32:28.084Z,42.14
2016-08-12T12:33:28.059Z,41.94
2016-08-12T12:34:27.341Z,41.19
2016-08-12T12:35:28.010Z,39.94
2016-08-12T12:36:27.984Z,38.87
2016-08-12T12:37:27.959Z,39.45
2016-08-12T12:38:27.930Z,39.36
2016-08-12T12:39:27.906Z,39.26
2016-08-12T12:41:28.184Z,39.16
2016-08-12T12:42:27.828Z,39.55
2016-08-12T12:43:27.799Z,39.84
2016-08-12T12:44:27.782Z,38.79
2016-08-12T12:45:27.749Z,39.94
2016-08-12T12:46:27.723Z,39.36
2016-08-12T12:47:27.694Z,39.64
2016-08-12T12:48:27.671Z,40.69
2016-08-12T12:49:27.644Z,40.96
2016-08-12T12:50:26.922Z,41.35
2016-08-12T12:51:26.897Z,41.54
2016-08-12T12:52:26.871Z,42.02
2016-08-12T12:54:27.527Z,41.44
2016-08-12T12:55:27.491Z,41.75
2016-08-12T12:56:26.772Z,41.94
2016-08-12T12:57:27.438Z,42.21
2016-08-12T12:58:27.411Z,42.41
2016-08-12T12:59:27.386Z,43.57
2016-08-12T13:00:27.356Z,43.95
2016-08-12T13:01:27.331Z,44.7
2016-08-12T13:02:26.609Z,44.97